Huvudsida
METAR-TAF:

METAR-TAF

Flygplatser :

Militär flygplats

Khamis Mushait, Saudiarabien

latitud: 18-18N, longitud: 042-48E, höjd: 2066 m

Aktuellt väderrapport

Denna rapport gjordes för 1 timme och 16 minuter sedan, klockan 22:00 UTC
Vind 6 kt från syd
Temperatur 16°C
Fuktighet 68%
Tryck 1023 hPa
Sikt 10 km eller mer
Få moln på en höjd av 2200 ft

METAR: OEKM 152200Z 18006KT 9999 FEW022 16/10 Q1023 NOSIG

Tid: 02:16 (23:16 UTC)

Väderprognos

Denna rapport gjordes för 12 timmar och 16 minuter sedan, klockan 11:00 UTC
Prognos gäller från 15 kl. 12 UTC till 16 kl. 18 UTC
Vind 14 kt från sydväst
Sikt 10 km eller mer
Få moln på en höjd av 2000 ft
Temporärt
från 15 kl. 12 UTC till 15 kl. 20 UTC
Sikt: 6000 m
Spridda moln på en höjd av 2000 ft
Få moln på en höjd av 2500 ft, Cumulonimbus.
åska, regn
Blir
från 15 kl. 20 UTC till 15 kl. 22 UTC
Vind 3 kt varierande vindriktning

TAF: OEKM 151100Z 1512/1618 22014KT 9999 FEW020 TEMPO 1512/1520 6000 TSRA SCT020 FEW025CB BECMG 1520/1522 VRB03KT

Aktuella väderrapporter och prognoser från 4000 flygplatser (METAR- och TAF-rapporter).

De tillgängliga stationerna syns som gula och röda prickar på kartan.

För musen över prickarna för att se namnen på stationerna.

Klicka sedan för att få väderrapporter och prognoser.

För att ändra kartan: Klicka på de gröna knapparna med ett svart kors på för att zooma in; den gröna knappen med ett streck på för att zooma ut; eller på de gröna pilarna för angränsande kartor.


METAR-TAF: